Burnettown, South Carolina
Current Conditions -  °F | °C
As of 2:55 AM on Wednesday 26 Nov 2014 (Local Time) from KAIK Reporting Station
Moderate Rain Moderate Rain  
Wind Chill: 43°   Ceiling: 600
Heat Index: 48°   Visibility: 7mi
Dew Point: 48°   Wind: 13mph
Humidity: 100%   Direction: 320°NW
Pressure: 29.95"   Gusts: 17mph
Location:  33.5144°N, 81.819°W
Report Text: KAIK 260755Z AUTO 32011G15KT 7SM RA BKN006 OVC017 09/09 A2995 RMK AO2 PNO
Loading
Personal Weather Stations






























Interactive Weather Map New forecast layout! Learn more

10-Day Weather Forecast

Advertisements
Track Severe Weather on mobile